Time;durP1;ratioP1;P1;durP2;ratioP2;P2;SDS_P1;SDS_P2;PMS_P1;PMS_P2;Temp;Humidity;BMP_temperature;BMP_pressure;BME280_temperature;BME280_humidity;BME280_pressure;Samples;Min_cycle;Max_cycle;Signal;HPM_P1;HPM_P2
2022/04/06 00:01:45;;;;;;;4.33;2.60;;;11.10;99.90;;;;;;5031369;28;20176;-84
2022/04/06 00:04:11;;;;;;;5.57;3.07;;;11.20;99.90;;;;;;5031444;28;20407;-84
2022/04/06 00:06:37;;;;;;;8.87;3.10;;;11.10;99.90;;;;;;5030781;28;20424;-85
2022/04/06 00:09:03;;;;;;;8.43;2.97;;;11.10;99.90;;;;;;5013720;28;20754;-83
2022/04/06 00:11:29;;;;;;;4.60;3.10;;;11.20;99.90;;;;;;5013777;28;20183;-84
2022/04/06 00:13:54;;;;;;;5.67;2.93;;;11.20;99.90;;;;;;5031428;28;20415;-83
2022/04/06 00:16:20;;;;;;;6.07;3.40;;;11.10;99.90;;;;;;5013701;28;20203;-85
2022/04/06 00:18:46;;;;;;;4.27;3.10;;;11.10;99.90;;;;;;5030585;28;20216;-83
2022/04/06 00:21:12;;;;;;;6.70;3.30;;;11.10;99.90;;;;;;5034231;28;20176;-84
2022/04/06 00:23:38;;;;;;;5.97;3.23;;;11.10;99.90;;;;;;5017178;28;20177;-84
2022/04/06 00:26:03;;;;;;;7.20;3.20;;;11.00;99.90;;;;;;5034824;28;20418;-84
2022/04/06 00:28:29;;;;;;;8.27;3.40;;;11.00;99.90;;;;;;5033888;28;20187;-84
2022/04/06 00:30:55;;;;;;;8.60;3.60;;;11.00;99.90;;;;;;5016900;28;20334;-84
2022/04/06 00:33:21;;;;;;;5.70;3.47;;;11.00;99.90;;;;;;5017111;28;20865;-84
2022/04/06 00:35:46;;;;;;;6.40;3.27;;;11.00;99.90;;;;;;5034519;28;20180;-84
2022/04/06 00:38:12;;;;;;;10.07;3.60;;;11.00;99.90;;;;;;5016114;28;20204;-84
2022/04/06 00:40:38;;;;;;;4.40;2.80;;;11.00;99.90;;;;;;5016784;28;20705;-84
2022/04/06 00:43:10;;;;;;;7.23;2.93;;;11.00;99.90;;;;;;5016808;28;20173;-84
2022/04/06 00:45:38;;;;;;;6.70;3.03;;;10.90;99.90;;;;;;5016599;28;20646;-84
2022/04/06 00:48:04;;;;;;;6.50;2.90;;;10.90;99.90;;;;;;5033821;28;20416;-84
2022/04/06 00:50:30;;;;;;;7.20;3.17;;;10.90;99.90;;;;;;5016425;28;20446;-84
2022/04/06 00:52:57;;;;;;;5.10;2.80;;;10.90;99.90;;;;;;5016646;28;20422;-84
2022/04/06 00:55:29;;;;;;;4.80;2.83;;;10.80;99.90;;;;;;5034298;28;20177;-84
2022/04/06 00:57:56;;;;;;;6.30;3.03;;;10.90;99.90;;;;;;5033281;28;20498;-83
2022/04/06 01:00:22;;;;;;;4.30;2.67;;;10.90;99.90;;;;;;5016312;28;20443;-84
2022/04/06 01:02:48;;;;;;;5.23;2.87;;;10.90;99.90;;;;;;5016377;28;20438;-83
2022/04/06 01:05:13;;;;;;;6.67;2.50;;;10.90;99.90;;;;;;5034037;28;20173;-84
2022/04/06 01:07:40;;;;;;;5.17;2.73;;;10.90;99.90;;;;;;5033304;28;20442;-84
2022/04/06 01:10:06;;;;;;;4.70;2.60;;;10.80;99.90;;;;;;5016111;28;20616;-83
2022/04/06 01:12:38;;;;;;;5.50;2.60;;;10.80;99.90;;;;;;5033857;28;20942;-83
2022/04/06 01:15:04;;;;;;;6.60;2.30;;;10.80;99.90;;;;;;5016209;28;20434;-83
2022/04/06 01:17:34;;;;;;;4.70;2.43;;;10.80;99.90;;;;;;5015146;28;20473;-84
2022/04/06 01:20:01;;;;;;;6.23;2.23;;;10.80;99.90;;;;;;5033683;28;20435;-84
2022/04/06 01:22:27;;;;;;;5.60;2.33;;;10.80;99.90;;;;;;5033853;28;20414;-84
2022/04/06 01:24:53;;;;;;;4.53;2.40;;;10.80;99.90;;;;;;5015842;28;20414;-85
2022/04/06 01:27:19;;;;;;;3.90;1.97;;;10.70;99.90;;;;;;5032838;28;20177;-84
2022/04/06 01:29:46;;;;;;;3.50;2.10;;;10.80;99.90;;;;;;5033659;28;20211;-85
2022/04/06 01:32:19;;;;;;;6.40;2.10;;;10.80;99.90;;;;;;5016321;28;20589;-84
2022/04/06 01:34:46;;;;;;;6.57;2.43;;;10.70;99.90;;;;;;5015884;28;20557;-84
2022/04/06 01:37:13;;;;;;;4.67;2.40;;;10.70;99.90;;;;;;5015257;28;20407;-84
2022/04/06 01:39:41;;;;;;;4.27;2.20;;;10.70;99.90;;;;;;5033432;28;20497;-84
2022/04/06 01:42:08;;;;;;;5.00;2.10;;;10.70;99.90;;;;;;5015661;28;20411;-84
2022/04/06 01:44:34;;;;;;;5.77;2.50;;;10.70;99.90;;;;;;5015569;28;20411;-84
2022/04/06 01:47:01;;;;;;;5.40;2.40;;;10.70;99.90;;;;;;5014994;28;20429;-84
2022/04/06 01:52:14;;;;;;;5.13;2.30;;;10.70;99.90;;;;;;5033599;28;20393;-84
2022/04/06 01:54:51;;;;;;;4.43;2.60;;;10.70;99.90;;;;;;5033103;28;20761;-83
2022/04/06 01:57:18;;;;;;;5.80;2.23;;;10.70;99.90;;;;;;5032490;28;20394;-83
2022/04/06 01:59:44;;;;;;;3.80;2.00;;;10.70;99.90;;;;;;5015415;28;20461;-85
2022/04/06 02:02:11;;;;;;;5.40;2.40;;;10.70;99.90;;;;;;5015235;28;20937;-83
2022/04/06 02:04:38;;;;;;;5.17;2.47;;;10.60;99.90;;;;;;5033119;28;20778;-83
2022/04/06 02:07:05;;;;;;;4.27;2.50;;;10.60;99.90;;;;;;5032250;28;20411;-84
2022/04/06 02:09:30;;;;;;;5.20;2.37;;;10.60;99.90;;;;;;5015268;28;20439;-84
2022/04/06 02:11:56;;;;;;;7.33;2.60;;;10.60;99.90;;;;;;5015051;28;20492;-84
2022/04/06 02:14:22;;;;;;;5.73;2.77;;;10.70;99.90;;;;;;5016068;28;20184;-85
2022/04/06 02:16:48;;;;;;;4.13;2.20;;;10.60;99.90;;;;;;5015942;28;20198;-85
2022/04/06 02:19:14;;;;;;;4.80;2.70;;;10.60;99.90;;;;;;5016586;28;20467;-84
2022/04/06 02:21:39;;;;;;;3.10;1.87;;;10.60;99.90;;;;;;5016582;28;20635;-84
2022/04/06 02:24:05;;;;;;;7.20;2.00;;;10.60;99.90;;;;;;5034286;28;20575;-85
2022/04/06 02:26:30;;;;;;;6.40;2.57;;;10.60;99.90;;;;;;5015873;28;20598;-84
2022/04/06 02:28:59;;;;;;;5.77;2.33;;;10.60;99.90;;;;;;5034625;28;20239;-85
2022/04/06 02:31:25;;;;;;;3.67;2.27;;;10.50;99.90;;;;;;5016744;28;20172;-84
2022/04/06 02:33:50;;;;;;;5.70;2.23;;;10.60;99.90;;;;;;5035515;28;20425;-84
2022/04/06 02:36:16;;;;;;;7.50;2.80;;;10.60;99.90;;;;;;5016810;28;20184;-84
2022/04/06 02:38:42;;;;;;;6.57;2.47;;;10.50;99.90;;;;;;5016251;28;20724;-83
2022/04/06 02:41:11;;;;;;;5.50;2.07;;;10.60;99.90;;;;;;5034335;28;20676;-85
2022/04/06 02:43:37;;;;;;;4.40;2.80;;;10.60;99.90;;;;;;5015809;28;20179;-84
2022/04/06 02:46:03;;;;;;;6.30;2.53;;;10.60;99.90;;;;;;5016112;28;20983;-84
2022/04/06 02:48:29;;;;;;;3.17;1.73;;;10.60;99.90;;;;;;5033231;28;20187;-83
2022/04/06 02:50:54;;;;;;;7.87;2.43;;;10.60;99.90;;;;;;5034025;28;20422;-84
2022/04/06 02:53:22;;;;;;;5.60;2.63;;;10.60;99.90;;;;;;5015606;28;20434;-85
2022/04/06 02:55:48;;;;;;;4.63;2.70;;;10.60;99.90;;;;;;5015955;28;20183;-84
2022/04/06 02:58:14;;;;;;;9.00;3.17;;;10.50;99.90;;;;;;5033246;28;20461;-86
2022/04/06 03:00:39;;;;;;;5.20;2.10;;;10.50;99.90;;;;;;5016435;28;20180;-84
2022/04/06 03:03:05;;;;;;;5.20;2.20;;;10.50;99.90;;;;;;5015880;28;20419;-84
2022/04/06 03:05:31;;;;;;;5.70;2.57;;;10.60;99.90;;;;;;5033684;28;20183;-84
2022/04/06 03:07:56;;;;;;;4.17;2.57;;;10.60;99.90;;;;;;5015205;28;20180;-85
2022/04/06 03:10:22;;;;;;;5.50;2.53;;;10.50;99.90;;;;;;5016071;28;20208;-85
2022/04/06 03:12:48;;;;;;;7.00;3.00;;;10.50;99.90;;;;;;5015610;28;20181;-84
2022/04/06 03:15:14;;;;;;;4.20;2.83;;;10.50;99.90;;;;;;5015774;28;20422;-84
2022/04/06 03:17:41;;;;;;;3.87;2.73;;;10.50;99.90;;;;;;5015368;28;20675;-84
2022/04/06 03:20:08;;;;;;;5.83;2.90;;;10.50;99.90;;;;;;5015190;28;20446;-84
2022/04/06 03:22:34;;;;;;;5.60;2.30;;;10.50;99.90;;;;;;5014841;28;20427;-84
2022/04/06 03:24:59;;;;;;;6.13;2.53;;;10.50;99.90;;;;;;5014771;28;20424;-84
2022/04/06 03:27:25;;;;;;;6.00;2.00;;;10.50;99.90;;;;;;5032140;28;20267;-85
2022/04/06 03:29:51;;;;;;;4.70;2.47;;;10.50;99.90;;;;;;5015404;28;20768;-84
2022/04/06 03:32:16;;;;;;;7.40;2.63;;;10.60;99.90;;;;;;5015317;28;20180;-84
2022/04/06 03:34:42;;;;;;;5.90;2.20;;;10.50;99.90;;;;;;5033235;28;20180;-84
2022/04/06 03:37:07;;;;;;;5.40;3.23;;;10.50;99.90;;;;;;5014016;28;20268;-84
2022/04/06 03:39:33;;;;;;;4.93;2.83;;;10.50;99.90;;;;;;5015019;28;20725;-84
2022/04/06 03:41:59;;;;;;;6.30;2.60;;;10.50;99.90;;;;;;5015269;28;20184;-86
2022/04/06 03:44:24;;;;;;;5.30;2.90;;;10.40;99.90;;;;;;5014906;28;20419;-84
2022/04/06 03:46:50;;;;;;;5.10;3.10;;;10.50;99.90;;;;;;5032007;28;20191;-83
2022/04/06 03:49:16;;;;;;;5.40;2.77;;;10.50;99.90;;;;;;5014850;28;20243;-83
2022/04/06 03:51:43;;;;;;;5.57;2.93;;;10.40;99.90;;;;;;5014844;28;20195;-83
2022/04/06 03:54:08;;;;;;;5.80;2.80;;;10.40;99.90;;;;;;5016473;28;20804;-84
2022/04/06 03:56:34;;;;;;;4.70;2.93;;;10.50;99.90;;;;;;5018115;28;20403;-84
2022/04/06 03:58:59;;;;;;;8.40;2.83;;;10.40;99.90;;;;;;5036276;28;20721;-85
2022/04/06 04:01:25;;;;;;;4.97;2.93;;;10.40;99.90;;;;;;5018674;28;20226;-85
2022/04/06 04:03:50;;;;;;;6.00;2.90;;;10.40;99.90;;;;;;5036098;28;20173;-84
2022/04/06 04:06:16;;;;;;;5.87;2.50;;;10.40;99.90;;;;;;5036003;28;20177;-84
2022/04/06 04:08:42;;;;;;;5.00;2.90;;;10.40;99.90;;;;;;5017252;28;20204;-84
2022/04/06 04:11:08;;;;;;;4.17;2.40;;;10.40;99.90;;;;;;5018216;28;20275;-84
2022/04/06 04:13:34;;;;;;;5.43;2.80;;;10.40;99.90;;;;;;5035883;28;20192;-84
2022/04/06 04:15:59;;;;;;;7.47;3.17;;;10.50;99.90;;;;;;5035841;28;20794;-84
2022/04/06 04:18:25;;;;;;;4.90;2.70;;;10.40;99.90;;;;;;5017364;28;20232;-84
2022/04/06 04:21:31;;;;;;;5.70;2.60;;;10.50;99.90;;;;;;5035596;28;20169;-84
2022/04/06 04:23:36;;;;;;;6.30;2.57;;;10.50;99.90;;;;;;5035290;28;20180;-84
2022/04/06 04:26:02;;;;;;;6.27;2.57;;;10.50;99.90;;;;;;5017643;28;20955;-85
2022/04/06 04:28:28;;;;;;;5.13;2.70;;;10.40;99.90;;;;;;5016617;28;20185;-84
2022/04/06 04:30:53;;;;;;;5.70;2.40;;;10.50;99.90;;;;;;5035387;28;20179;-84
2022/04/06 04:33:19;;;;;;;7.10;3.00;;;10.40;99.90;;;;;;5017463;28;20192;-85
2022/04/06 04:35:44;;;;;;;6.40;3.00;;;10.40;99.90;;;;;;5035282;28;20169;-84
2022/04/06 04:38:11;;;;;;;4.50;2.67;;;10.40;99.90;;;;;;5016421;28;20211;-84
2022/04/06 04:40:36;;;;;;;6.77;2.97;;;10.50;99.90;;;;;;5017088;28;20258;-85
2022/04/06 04:43:03;;;;;;;9.77;3.30;;;10.50;99.90;;;;;;5035011;28;20411;-84
2022/04/06 04:45:28;;;;;;;4.60;2.40;;;10.40;99.90;;;;;;5016874;28;20227;-84
2022/04/06 04:47:54;;;;;;;6.10;2.50;;;10.40;99.90;;;;;;5016098;28;20431;-84
2022/04/06 04:50:20;;;;;;;9.23;3.10;;;10.40;99.90;;;;;;5034312;28;20204;-84
2022/04/06 04:52:45;;;;;;;4.73;2.70;;;10.50;99.90;;;;;;5034392;28;20180;-84
2022/04/06 04:55:11;;;;;;;6.87;2.70;;;10.40;99.90;;;;;;5016551;28;20192;-84
2022/04/06 04:57:37;;;;;;;6.53;2.70;;;10.40;99.90;;;;;;5015878;28;20276;-84
2022/04/06 05:00:06;;;;;;;8.40;3.30;;;10.40;99.90;;;;;;5016433;28;20291;-84
2022/04/06 05:02:32;;;;;;;6.30;3.10;;;10.40;99.90;;;;;;5034386;28;20176;-84
2022/04/06 05:04:57;;;;;;;4.97;3.10;;;10.40;99.90;;;;;;5016188;28;20442;-84
2022/04/06 05:07:23;;;;;;;6.20;3.17;;;10.40;99.90;;;;;;5015243;28;20274;-84
2022/04/06 05:09:49;;;;;;;4.33;2.30;;;10.40;99.90;;;;;;5016322;28;20200;-84
2022/04/06 05:12:15;;;;;;;8.40;3.10;;;10.40;99.90;;;;;;5034035;28;20260;-84
2022/04/06 05:14:41;;;;;;;7.47;3.17;;;10.40;99.90;;;;;;5033923;28;20439;-84
2022/04/06 05:17:07;;;;;;;5.47;2.63;;;10.40;99.90;;;;;;5015611;28;20426;-84
2022/04/06 05:19:32;;;;;;;4.13;2.73;;;10.40;99.90;;;;;;5015859;28;20223;-84
2022/04/06 05:21:59;;;;;;;4.53;2.57;;;10.40;99.90;;;;;;5016093;28;20659;-84
2022/04/06 05:24:25;;;;;;;4.53;2.70;;;10.50;99.90;;;;;;5015941;28;20183;-84
2022/04/06 05:26:51;;;;;;;5.23;2.90;;;10.50;99.90;;;;;;5015269;28;20423;-83
2022/04/06 05:29:17;;;;;;;3.53;2.37;;;10.50;99.90;;;;;;5015602;28;20573;-84
2022/04/06 05:31:43;;;;;;;6.07;2.67;;;10.50;99.90;;;;;;5061544;23;20505;-64
2022/04/06 05:34:08;;;;;;;6.17;2.97;;;10.50;99.90;;;;;;5035117;28;20180;-64
2022/04/06 05:36:34;;;;;;;4.70;2.70;;;10.40;99.90;;;;;;5035027;28;20689;-64
2022/04/06 05:39:00;;;;;;;8.40;2.87;;;10.40;99.90;;;;;;5035146;28;20207;-64
2022/04/06 05:41:27;;;;;;;6.53;2.77;;;10.50;99.90;;;;;;5034969;28;20195;-64
2022/04/06 05:43:53;;;;;;;6.17;2.47;;;10.50;99.90;;;;;;5035253;28;20429;-64
2022/04/06 05:46:19;;;;;;;4.80;2.63;;;10.50;99.90;;;;;;5035041;28;20411;-64
2022/04/06 05:48:45;;;;;;;4.00;2.50;;;10.40;99.90;;;;;;5035045;28;20437;-64
2022/04/06 05:51:10;;;;;;;7.87;2.37;;;10.50;99.90;;;;;;5034945;28;20437;-64
2022/04/06 05:53:36;;;;;;;5.23;2.80;;;10.50;99.90;;;;;;5035132;28;20194;-64
2022/04/06 05:56:02;;;;;;;4.03;2.10;;;10.50;99.90;;;;;;5034844;28;20184;-64
2022/04/06 05:58:28;;;;;;;4.73;2.00;;;10.50;99.90;;;;;;5034594;28;20207;-64
2022/04/06 06:00:53;;;;;;;3.73;1.83;;;10.50;99.90;;;;;;5034774;28;20207;-64
2022/04/06 06:03:19;;;;;;;3.20;1.80;;;10.60;99.90;;;;;;5034594;28;20409;-64
2022/04/06 06:05:45;;;;;;;5.40;2.53;;;10.60;99.90;;;;;;5034939;28;20172;-64
2022/04/06 06:08:11;;;;;;;6.73;1.93;;;10.60;99.90;;;;;;5034651;28;20286;-63
2022/04/06 06:10:38;;;;;;;5.63;2.57;;;10.70;99.90;;;;;;5034649;28;20207;-64
2022/04/06 06:13:03;;;;;;;7.80;2.20;;;10.70;99.90;;;;;;5034703;28;20186;-65
2022/04/06 06:15:29;;;;;;;5.10;2.00;;;10.70;99.90;;;;;;5034928;28;20418;-64
2022/04/06 06:17:55;;;;;;;3.50;2.00;;;10.70;99.90;;;;;;5033169;28;20203;-63
2022/04/06 06:20:21;;;;;;;3.50;1.80;;;10.70;99.90;;;;;;5034230;28;20202;-63
2022/04/06 06:22:46;;;;;;;6.90;2.30;;;10.80;99.90;;;;;;5034340;28;20232;-63
2022/04/06 06:25:12;;;;;;;4.33;2.00;;;10.80;99.90;;;;;;5034375;28;20180;-63
2022/04/06 06:27:42;;;;;;;4.10;1.53;;;10.80;99.90;;;;;;5034275;28;20270;-63
2022/04/06 06:30:11;;;;;;;5.83;2.40;;;10.70;99.90;;;;;;5034287;28;20929;-63
2022/04/06 06:32:37;;;;;;;5.30;2.00;;;10.70;99.90;;;;;;5034773;28;20422;-64
2022/04/06 06:35:03;;;;;;;8.80;2.50;;;10.70;99.90;;;;;;5034249;28;20433;-64
2022/04/06 06:37:29;;;;;;;3.67;2.07;;;10.70;99.90;;;;;;5034004;28;20182;-64
2022/04/06 06:39:55;;;;;;;3.20;2.20;;;10.80;99.90;;;;;;5033913;28;20798;-64
2022/04/06 06:42:21;;;;;;;3.67;1.70;;;10.80;99.90;;;;;;5034127;28;20915;-64
2022/04/06 06:44:47;;;;;;;4.43;2.10;;;10.80;99.90;;;;;;5034327;28;20552;-64
2022/04/06 06:47:13;;;;;;;5.00;2.00;;;10.80;99.90;;;;;;5034018;28;20414;-64
2022/04/06 06:49:45;;;;;;;3.97;2.33;;;10.80;99.90;;;;;;5034198;28;20414;-63
2022/04/06 06:52:11;;;;;;;3.40;1.53;;;10.80;99.90;;;;;;5034088;28;20200;-63
2022/04/06 06:54:37;;;;;;;6.07;2.20;;;10.70;99.90;;;;;;5034007;28;20913;-64
2022/04/06 06:57:03;;;;;;;6.53;2.13;;;10.80;99.90;;;;;;5033793;28;20449;-63
2022/04/06 06:59:29;;;;;;;4.37;2.33;;;10.70;99.90;;;;;;5033966;28;20568;-63
2022/04/06 07:01:54;;;;;;;4.93;1.90;;;10.80;99.90;;;;;;5033710;28;20525;-64
2022/04/06 07:04:22;;;;;;;3.33;1.90;;;10.90;99.90;;;;;;5033999;28;20183;-63
2022/04/06 07:06:49;;;;;;;5.00;2.07;;;10.90;99.90;;;;;;5033568;28;20179;-63
2022/04/06 07:09:16;;;;;;;4.20;2.20;;;11.00;99.90;;;;;;5034092;28;20429;-63
2022/04/06 07:11:42;;;;;;;4.27;1.67;;;11.00;99.90;;;;;;5033493;28;20426;-63
2022/04/06 07:14:08;;;;;;;4.27;1.83;;;11.10;99.90;;;;;;5032069;28;20430;-64
2022/04/06 07:16:33;;;;;;;4.30;1.53;;;11.20;99.90;;;;;;5051586;28;20753;-63
2022/04/06 07:19:00;;;;;;;4.43;2.03;;;11.30;99.90;;;;;;5033531;28;20461;-63
2022/04/06 07:21:26;;;;;;;3.50;1.90;;;11.40;99.90;;;;;;5033517;28;20624;-64
2022/04/06 07:23:54;;;;;;;3.10;2.00;;;11.30;99.90;;;;;;5033746;28;20740;-63
2022/04/06 07:26:20;;;;;;;5.23;2.27;;;11.30;99.90;;;;;;5033570;28;20414;-63
2022/04/06 07:28:46;;;;;;;3.37;1.80;;;11.20;99.90;;;;;;5034492;28;20532;-63
2022/04/06 07:31:12;;;;;;;4.50;1.90;;;11.30;99.90;;;;;;5037513;28;20215;-63
2022/04/06 07:33:40;;;;;;;3.27;1.87;;;11.30;99.90;;;;;;5037835;28;20599;-64
2022/04/06 07:36:09;;;;;;;2.90;1.63;;;11.30;99.90;;;;;;5037648;28;20924;-64
2022/04/06 07:38:34;;;;;;;4.50;1.77;;;11.30;99.90;;;;;;5037350;28;20851;-64
2022/04/06 07:41:00;;;;;;;4.10;1.80;;;11.30;99.90;;;;;;5037468;28;20434;-64
2022/04/06 07:43:26;;;;;;;4.30;1.73;;;11.30;99.90;;;;;;5037438;28;20754;-64
2022/04/06 07:45:52;;;;;;;2.80;1.70;;;11.20;99.90;;;;;;5037495;28;20184;-64
2022/04/06 07:48:18;;;;;;;2.67;1.33;;;11.20;99.90;;;;;;5037184;28;20422;-64
2022/04/06 07:50:43;;;;;;;3.23;1.87;;;11.20;99.90;;;;;;5037258;28;20687;-64
2022/04/06 07:53:11;;;;;;;4.10;2.00;;;11.30;99.90;;;;;;5037249;28;20693;-64
2022/04/06 07:55:37;;;;;;;6.33;1.40;;;11.30;99.90;;;;;;5037223;28;20333;-63
2022/04/06 07:58:03;;;;;;;4.00;1.60;;;11.30;99.90;;;;;;5037012;28;20552;-63
2022/04/06 08:00:33;;;;;;;3.90;1.40;;;11.40;99.90;;;;;;5037107;28;20694;-64
2022/04/06 08:02:59;;;;;;;6.20;2.00;;;11.30;99.90;;;;;;5037113;28;20776;-64
2022/04/06 08:05:25;;;;;;;2.60;1.20;;;11.30;99.90;;;;;;5036998;28;20429;-64
2022/04/06 08:07:53;;;;;;;3.07;1.93;;;11.30;99.90;;;;;;5036781;28;20422;-64
2022/04/06 08:10:20;;;;;;;3.07;1.33;;;11.20;99.90;;;;;;5036884;28;20211;-64
2022/04/06 08:12:47;;;;;;;2.97;1.50;;;11.20;99.90;;;;;;5036952;28;20563;-64
2022/04/06 08:15:14;;;;;;;2.57;1.20;;;11.20;99.90;;;;;;5036911;28;20422;-63
2022/04/06 08:17:45;;;;;;;4.67;1.23;;;11.10;99.90;;;;;;5036488;28;20919;-64
2022/04/06 08:20:12;;;;;;;2.90;1.57;;;11.20;99.90;;;;;;5036760;28;21008;-63
2022/04/06 08:22:41;;;;;;;2.67;1.30;;;11.30;99.90;;;;;;5036619;28;20433;-64
2022/04/06 08:25:11;;;;;;;2.60;1.33;;;11.40;99.90;;;;;;5036700;28;20449;-64
2022/04/06 08:27:40;;;;;;;4.40;1.30;;;11.50;99.90;;;;;;5036403;28;20418;-63
2022/04/06 08:30:07;;;;;;;4.97;1.70;;;11.60;99.90;;;;;;5036556;28;20418;-64
2022/04/06 08:32:33;;;;;;;2.33;1.47;;;11.60;99.90;;;;;;5036537;28;20449;-64
2022/04/06 08:34:59;;;;;;;3.27;1.60;;;11.70;99.90;;;;;;5036569;28;20410;-64
2022/04/06 08:37:38;;;;;;;3.23;1.60;;;11.60;99.90;;;;;;5032672;28;20450;-63
2022/04/06 08:40:08;;;;;;;3.17;1.50;;;11.60;99.90;;;;;;5015545;28;20489;-64
2022/04/06 08:42:40;;;;;;;3.40;1.63;;;11.60;99.90;;;;;;5015549;28;20789;-63
2022/04/06 08:45:07;;;;;;;2.93;1.60;;;11.60;99.90;;;;;;5015959;28;20514;-63
2022/04/06 08:47:34;;;;;;;3.50;1.33;;;11.40;99.90;;;;;;5016245;28;20407;-64
2022/04/06 08:50:04;;;;;;;2.87;1.30;;;11.40;99.90;;;;;;5024959;28;20453;-63
2022/04/06 08:52:34;;;;;;;3.50;1.53;;;11.30;99.90;;;;;;5035923;28;20421;-63
2022/04/06 08:55:00;;;;;;;4.70;1.53;;;11.30;99.90;;;;;;5016022;28;20419;-64
2022/04/06 08:57:26;;;;;;;3.07;1.50;;;11.30;99.90;;;;;;5016021;28;20416;-63
2022/04/06 08:59:52;;;;;;;3.83;1.50;;;11.30;99.90;;;;;;5015791;28;20207;-64
2022/04/06 09:02:23;;;;;;;3.70;1.30;;;11.40;99.90;;;;;;5017515;28;20450;-64
2022/04/06 09:04:55;;;;;;;9.77;2.13;;;11.40;99.90;;;;;;5029867;28;20175;-63
2022/04/06 09:07:24;;;;;;;3.10;1.70;;;11.50;99.90;;;;;;5035140;28;20430;-63
2022/04/06 09:09:51;;;;;;;3.40;1.50;;;11.50;99.90;;;;;;5035453;28;20426;-63
2022/04/06 09:12:21;;;;;;;3.23;1.50;;;11.60;99.90;;;;;;5035399;28;20453;-63
2022/04/06 09:15:08;;;;;;;4.30;1.70;;;11.60;99.90;;;;;;5035669;28;20433;-64
2022/04/06 09:17:48;;;;;;;5.60;1.50;;;11.70;99.90;;;;;;5027301;28;20422;-63
2022/04/06 09:20:15;;;;;;;3.20;1.60;;;11.80;99.90;;;;;;5035523;28;20453;-63
2022/04/06 09:22:42;;;;;;;2.83;1.50;;;12.10;99.90;;;;;;5035639;28;20943;-64
2022/04/06 09:25:09;;;;;;;3.80;1.57;;;12.40;99.90;;;;;;5035723;28;20886;-63
2022/04/06 09:27:35;;;;;;;4.37;1.67;;;12.50;99.90;;;;;;5035885;28;20419;-65
2022/04/06 09:30:06;;;;;;;3.80;1.50;;;12.60;99.90;;;;;;5035664;28;20417;-64
2022/04/06 09:32:31;;;;;;;5.63;2.00;;;12.60;99.90;;;;;;5035414;28;20340;-64
2022/04/06 09:34:57;;;;;;;4.47;2.03;;;12.70;99.90;;;;;;5035243;28;20505;-64
2022/04/06 09:37:31;;;;;;;5.70;1.70;;;12.90;99.90;;;;;;5035198;28;20407;-64
2022/04/06 09:40:16;;;;;;;2.60;1.20;;;13.00;99.90;;;;;;5035268;28;20434;-64
2022/04/06 09:42:51;;;;;;;3.43;1.50;;;13.20;99.90;;;;;;5035282;28;20909;-64
2022/04/06 09:48:12;;;;;;;3.17;1.40;;;13.10;99.90;;;;;;5053315;28;20468;-64
2022/04/06 09:50:38;;;;;;;3.50;1.27;;;13.50;99.90;;;;;;5035098;28;20438;-64
2022/04/06 09:53:06;;;;;;;3.73;1.20;;;13.70;99.90;;;;;;5034977;28;20454;-65
2022/04/06 09:55:33;;;;;;;2.53;1.40;;;13.60;99.90;;;;;;5035104;28;20509;-65
2022/04/06 09:58:03;;;;;;;6.30;1.30;;;13.70;99.90;;;;;;5034758;28;20462;-64
2022/04/06 10:00:30;;;;;;;2.73;1.20;;;13.80;99.90;;;;;;5034923;28;20434;-64
2022/04/06 10:03:13;;;;;;;3.80;1.20;;;13.90;99.90;;;;;;5034887;28;20449;-64
2022/04/06 10:05:40;;;;;;;2.77;1.47;;;14.20;99.90;;;;;;5035132;28;21001;-64
2022/04/06 10:08:10;;;;;;;3.90;1.30;;;14.30;99.90;;;;;;5034579;28;20433;-65
2022/04/06 10:10:38;;;;;;;3.10;1.33;;;14.00;99.90;;;;;;5031555;28;20799;-64
2022/04/06 10:13:05;;;;;;;3.33;1.37;;;13.70;99.90;;;;;;5032566;28;20425;-64
2022/04/06 10:15:31;;;;;;;3.07;1.50;;;13.50;99.90;;;;;;5033876;28;20427;-64
2022/04/06 10:17:57;;;;;;;2.60;1.30;;;13.30;99.90;;;;;;5033742;28;20468;-65
2022/04/06 10:20:29;;;;;;;3.33;1.20;;;13.20;99.90;;;;;;5034087;28;20442;-65
2022/04/06 10:23:32;;;;;;;3.57;1.37;;;13.10;99.90;;;;;;5034344;28;20422;-68
2022/04/06 10:26:16;;;;;;;5.23;1.63;;;13.10;99.90;;;;;;5023536;28;20507;-65
2022/04/06 10:28:46;;;;;;;2.40;1.30;;;13.00;99.90;;;;;;5029480;28;20537;-62
2022/04/06 10:31:12;;;;;;;2.53;1.40;;;13.00;99.90;;;;;;5032907;28;20535;-65
2022/04/06 10:33:38;;;;;;;4.77;1.30;;;13.00;99.90;;;;;;5034017;28;20430;-66
2022/04/06 10:36:21;;;;;;;2.77;1.47;;;13.10;99.90;;;;;;5033598;28;20188;-65
2022/04/06 10:39:09;;;;;;;2.70;1.50;;;13.20;99.90;;;;;;5033617;28;20532;-65
2022/04/06 10:41:41;;;;;;;3.83;1.90;;;13.30;99.90;;;;;;5033507;28;20811;-66
2022/04/06 10:44:08;;;;;;;3.60;1.67;;;13.40;99.90;;;;;;5034056;28;20472;-65
2022/04/06 10:46:41;;;;;;;3.30;1.67;;;13.40;99.90;;;;;;5025616;28;20444;-65
2022/04/06 10:49:07;;;;;;;3.73;1.30;;;13.50;99.90;;;;;;5033818;28;20454;-67
2022/04/06 10:51:37;;;;;;;3.37;2.00;;;13.60;99.90;;;;;;5033793;28;20473;-66
2022/04/06 10:54:12;;;;;;;5.20;1.77;;;13.50;99.90;;;;;;5033877;28;21015;-65
2022/04/06 10:56:52;;;;;;;2.80;1.30;;;13.50;99.90;;;;;;5033379;28;20449;-66
2022/04/06 10:59:19;;;;;;;3.00;1.73;;;13.60;99.90;;;;;;5033945;28;20477;-66
2022/04/06 11:01:51;;;;;;;5.80;2.00;;;13.80;99.90;;;;;;5033265;28;20453;-66
2022/04/06 11:04:21;;;;;;;2.87;1.53;;;14.20;99.90;;;;;;5033282;28;20430;-66
2022/04/06 11:06:49;;;;;;;3.17;1.80;;;14.60;99.90;;;;;;5033471;28;20414;-67
2022/04/06 11:12:18;;;;;;;2.67;1.20;;;15.30;99.90;;;;;;5051706;28;20440;-65
2022/04/06 11:14:46;;;;;;;2.60;1.30;;;15.10;99.90;;;;;;5033682;28;20836;-66
2022/04/06 11:17:32;;;;;;;6.00;1.70;;;15.10;99.90;;;;;;5033342;28;20426;-66
2022/04/06 11:19:58;;;;;;;3.43;1.30;;;15.10;99.90;;;;;;5033331;28;20841;-65
2022/04/06 11:22:25;;;;;;;3.30;1.80;;;14.70;99.90;;;;;;5033579;28;20501;-65
2022/04/06 11:24:50;;;;;;;3.03;1.57;;;14.20;99.90;;;;;;5032798;28;20525;-66
2022/04/06 11:27:34;;;;;;;2.63;1.30;;;14.10;99.90;;;;;;5033132;28;21000;-67
2022/04/06 11:30:09;;;;;;;3.23;1.67;;;14.20;99.90;;;;;;5033363;28;20256;-66
2022/04/06 11:32:36;;;;;;;3.73;1.33;;;14.70;99.90;;;;;;5037787;23;20641;-88
2022/04/06 11:35:12;;;;;;;2.47;1.23;;;14.80;99.90;;;;;;5014635;28;20423;-88
2022/04/06 11:37:48;;;;;;;3.43;1.13;;;15.10;99.90;;;;;;5009562;28;20936;-88
2022/04/06 11:40:20;;;;;;;2.30;0.97;;;15.60;99.90;;;;;;5012726;28;20439;-88
2022/04/06 11:42:54;;;;;;;3.07;1.40;;;15.50;99.90;;;;;;5014269;28;20533;-88
2022/04/06 11:45:29;;;;;;;3.67;1.50;;;15.30;99.90;;;;;;5014151;28;20425;-86
2022/04/06 11:47:56;;;;;;;2.63;1.33;;;15.20;99.90;;;;;;5013777;28;20434;-87
2022/04/06 11:50:37;;;;;;;5.93;1.43;;;15.80;99.90;;;;;;5013574;28;20423;-86
2022/04/06 11:53:08;;;;;;;4.60;1.57;;;16.70;99.90;;;;;;5013741;28;20422;-87
2022/04/06 11:55:47;;;;;;;2.47;1.43;;;16.90;99.90;;;;;;5013799;28;20844;-87
2022/04/06 11:58:39;;;;;;;2.30;1.10;;;17.00;99.90;;;;;;5013551;28;20477;-88
2022/04/06 12:01:10;;;;;;;3.50;1.47;;;17.20;99.90;;;;;;5014427;28;20442;-87
2022/04/06 12:03:38;;;;;;;2.97;1.10;;;17.40;99.90;;;;;;5013886;28;20422;-89
2022/04/06 12:06:06;;;;;;;2.93;1.30;;;17.00;99.90;;;;;;5013645;28;20407;-87
2022/04/06 12:08:33;;;;;;;3.23;1.30;;;16.50;99.90;;;;;;5013647;28;20434;-86
2022/04/06 12:10:59;;;;;;;4.93;1.30;;;15.90;99.90;;;;;;5013328;28;20439;-86
2022/04/06 12:13:28;;;;;;;3.77;1.13;;;15.50;99.90;;;;;;5013411;28;20485;-86
2022/04/06 12:15:55;;;;;;;3.30;1.10;;;15.10;99.90;;;;;;5014479;28;20947;-86
2022/04/06 12:18:22;;;;;;;2.20;1.00;;;14.90;99.90;;;;;;5017450;28;20465;-88
2022/04/06 12:20:49;;;;;;;2.80;1.10;;;14.70;99.90;;;;;;5014460;28;20480;-87
2022/04/06 12:23:16;;;;;;;2.20;1.13;;;14.50;99.90;;;;;;5010845;28;20508;-86
2022/04/06 12:25:42;;;;;;;4.07;1.40;;;14.40;99.90;;;;;;5016792;28;20473;-86
2022/04/06 12:28:27;;;;;;;5.23;1.70;;;14.30;99.90;;;;;;5016548;28;20438;-86
2022/04/06 12:30:59;;;;;;;2.60;1.40;;;14.00;99.90;;;;;;5016710;28;20449;-86
2022/04/06 12:33:41;;;;;;;2.83;1.07;;;13.90;99.90;;;;;;5017253;28;20529;-86
2022/04/06 12:36:08;;;;;;;2.30;1.20;;;13.80;99.90;;;;;;5016805;28;20481;-86
2022/04/06 12:38:34;;;;;;;2.80;1.30;;;13.90;99.90;;;;;;5016188;28;20467;-86
2022/04/06 12:41:08;;;;;;;2.80;1.37;;;14.00;99.90;;;;;;5016616;28;20443;-86
2022/04/06 12:43:38;;;;;;;4.00;1.67;;;14.00;99.90;;;;;;5017243;28;20435;-87
2022/04/06 12:46:04;;;;;;;3.33;1.30;;;13.80;99.90;;;;;;5017125;28;20411;-87
2022/04/06 12:48:30;;;;;;;2.53;1.30;;;13.60;99.90;;;;;;5017105;28;20435;-86
2022/04/06 12:50:56;;;;;;;2.97;1.57;;;13.50;99.90;;;;;;5016405;28;20443;-86
2022/04/06 12:53:22;;;;;;;3.83;1.53;;;13.40;99.90;;;;;;5016798;28;20185;-87
2022/04/06 12:56:11;;;;;;;3.90;1.60;;;13.50;99.90;;;;;;5016462;28;20464;-87
2022/04/06 12:58:37;;;;;;;2.70;1.27;;;13.40;99.90;;;;;;5016922;28;20212;-87
2022/04/06 13:01:09;;;;;;;3.13;1.30;;;13.30;99.90;;;;;;5012558;28;20464;-87